sensor_id;sensor_type;location;lat;lon;timestamp;P1;durP1;ratioP1;P2;durP2;ratioP2
80320;SDS011;69633;47.066;15.450;2023-12-14T00:00:17;16.42;;;8.85;;
80320;SDS011;69633;47.066;15.450;2023-12-14T00:02:43;15.20;;;7.80;;
80320;SDS011;69633;47.066;15.450;2023-12-14T00:05:09;14.85;;;7.55;;
80320;SDS011;69633;47.066;15.450;2023-12-14T00:07:34;15.00;;;8.73;;
80320;SDS011;69633;47.066;15.450;2023-12-14T00:09:59;16.67;;;8.68;;
80320;SDS011;69633;47.066;15.450;2023-12-14T00:12:25;20.17;;;9.13;;
80320;SDS011;69633;47.066;15.450;2023-12-14T00:14:51;18.85;;;8.90;;
80320;SDS011;69633;47.066;15.450;2023-12-14T00:17:16;21.02;;;9.65;;
80320;SDS011;69633;47.066;15.450;2023-12-14T00:19:41;17.08;;;9.07;;
80320;SDS011;69633;47.066;15.450;2023-12-14T00:22:07;15.18;;;8.90;;
80320;SDS011;69633;47.066;15.450;2023-12-14T00:24:33;15.45;;;8.15;;
80320;SDS011;69633;47.066;15.450;2023-12-14T00:26:58;17.98;;;9.25;;
80320;SDS011;69633;47.066;15.450;2023-12-14T00:29:23;19.15;;;9.20;;
80320;SDS011;69633;47.066;15.450;2023-12-14T00:31:49;15.88;;;9.23;;
80320;SDS011;69633;47.066;15.450;2023-12-14T00:34:14;17.92;;;9.30;;
80320;SDS011;69633;47.066;15.450;2023-12-14T00:36:40;19.13;;;9.68;;
80320;SDS011;69633;47.066;15.450;2023-12-14T00:39:05;18.95;;;8.35;;
80320;SDS011;69633;47.066;15.450;2023-12-14T00:41:31;16.40;;;8.45;;
80320;SDS011;69633;47.066;15.450;2023-12-14T00:43:56;16.83;;;8.52;;
80320;SDS011;69633;47.066;15.450;2023-12-14T00:46:21;13.35;;;8.05;;
80320;SDS011;69633;47.066;15.450;2023-12-14T00:48:47;21.02;;;8.98;;
80320;SDS011;69633;47.066;15.450;2023-12-14T00:51:12;16.52;;;9.23;;
80320;SDS011;69633;47.066;15.450;2023-12-14T00:53:37;19.08;;;8.63;;
80320;SDS011;69633;47.066;15.450;2023-12-14T00:56:03;16.40;;;8.15;;
80320;SDS011;69633;47.066;15.450;2023-12-14T00:58:28;14.35;;;7.65;;
80320;SDS011;69633;47.066;15.450;2023-12-14T01:00:54;15.25;;;7.82;;
80320;SDS011;69633;47.066;15.450;2023-12-14T01:03:20;17.90;;;8.48;;
80320;SDS011;69633;47.066;15.450;2023-12-14T01:05:46;13.85;;;7.47;;
80320;SDS011;69633;47.066;15.450;2023-12-14T01:08:11;14.52;;;7.75;;
80320;SDS011;69633;47.066;15.450;2023-12-14T01:10:36;13.93;;;8.18;;
80320;SDS011;69633;47.066;15.450;2023-12-14T01:13:02;14.00;;;7.25;;
80320;SDS011;69633;47.066;15.450;2023-12-14T01:15:28;13.93;;;7.88;;
80320;SDS011;69633;47.066;15.450;2023-12-14T01:17:54;16.65;;;8.48;;
80320;SDS011;69633;47.066;15.450;2023-12-14T01:20:19;15.98;;;7.85;;
80320;SDS011;69633;47.066;15.450;2023-12-14T01:22:45;13.20;;;8.18;;
80320;SDS011;69633;47.066;15.450;2023-12-14T01:25:10;11.98;;;6.90;;
80320;SDS011;69633;47.066;15.450;2023-12-14T01:27:36;15.48;;;7.35;;
80320;SDS011;69633;47.066;15.450;2023-12-14T01:30:01;12.20;;;6.60;;
80320;SDS011;69633;47.066;15.450;2023-12-14T01:32:26;13.98;;;7.57;;
80320;SDS011;69633;47.066;15.450;2023-12-14T01:34:52;12.70;;;6.75;;
80320;SDS011;69633;47.066;15.450;2023-12-14T01:37:17;13.90;;;7.60;;
80320;SDS011;69633;47.066;15.450;2023-12-14T01:39:43;15.75;;;6.75;;
80320;SDS011;69633;47.066;15.450;2023-12-14T01:42:08;12.50;;;6.18;;
80320;SDS011;69633;47.066;15.450;2023-12-14T01:44:33;15.82;;;7.65;;
80320;SDS011;69633;47.066;15.450;2023-12-14T01:46:59;12.10;;;6.68;;
80320;SDS011;69633;47.066;15.450;2023-12-14T01:49:24;9.82;;;6.38;;
80320;SDS011;69633;47.066;15.450;2023-12-14T01:51:50;13.63;;;6.35;;
80320;SDS011;69633;47.066;15.450;2023-12-14T01:54:15;11.20;;;6.30;;
80320;SDS011;69633;47.066;15.450;2023-12-14T01:56:40;11.95;;;6.07;;
80320;SDS011;69633;47.066;15.450;2023-12-14T01:59:06;9.88;;;5.70;;
80320;SDS011;69633;47.066;15.450;2023-12-14T02:01:37;17.10;;;6.82;;
80320;SDS011;69633;47.066;15.450;2023-12-14T02:04:06;13.75;;;6.15;;
80320;SDS011;69633;47.066;15.450;2023-12-14T02:06:32;11.93;;;6.03;;
80320;SDS011;69633;47.066;15.450;2023-12-14T02:08:58;12.52;;;6.15;;
80320;SDS011;69633;47.066;15.450;2023-12-14T02:11:23;13.02;;;5.68;;
80320;SDS011;69633;47.066;15.450;2023-12-14T02:13:48;10.90;;;5.15;;
80320;SDS011;69633;47.066;15.450;2023-12-14T02:16:14;12.38;;;4.93;;
80320;SDS011;69633;47.066;15.450;2023-12-14T02:18:40;9.43;;;4.95;;
80320;SDS011;69633;47.066;15.450;2023-12-14T02:21:05;8.43;;;4.03;;
80320;SDS011;69633;47.066;15.450;2023-12-14T02:23:31;8.18;;;4.10;;
80320;SDS011;69633;47.066;15.450;2023-12-14T02:25:56;10.25;;;4.53;;
80320;SDS011;69633;47.066;15.450;2023-12-14T02:28:22;10.10;;;4.47;;
80320;SDS011;69633;47.066;15.450;2023-12-14T02:30:47;10.95;;;4.32;;
80320;SDS011;69633;47.066;15.450;2023-12-14T02:33:12;9.02;;;4.22;;
80320;SDS011;69633;47.066;15.450;2023-12-14T02:35:38;7.53;;;3.80;;
80320;SDS011;69633;47.066;15.450;2023-12-14T02:38:04;8.65;;;4.20;;
80320;SDS011;69633;47.066;15.450;2023-12-14T02:40:29;9.75;;;4.40;;
80320;SDS011;69633;47.066;15.450;2023-12-14T02:42:55;6.47;;;3.85;;
80320;SDS011;69633;47.066;15.450;2023-12-14T02:45:20;6.63;;;4.07;;
80320;SDS011;69633;47.066;15.450;2023-12-14T02:47:45;8.15;;;3.88;;
80320;SDS011;69633;47.066;15.450;2023-12-14T02:50:12;7.70;;;4.10;;
80320;SDS011;69633;47.066;15.450;2023-12-14T02:52:38;8.85;;;4.03;;
80320;SDS011;69633;47.066;15.450;2023-12-14T02:55:04;9.52;;;3.70;;
80320;SDS011;69633;47.066;15.450;2023-12-14T02:57:29;8.10;;;3.42;;
80320;SDS011;69633;47.066;15.450;2023-12-14T02:59:55;9.90;;;4.22;;
80320;SDS011;69633;47.066;15.450;2023-12-14T03:02:20;9.52;;;3.75;;
80320;SDS011;69633;47.066;15.450;2023-12-14T03:04:46;8.10;;;4.00;;
80320;SDS011;69633;47.066;15.450;2023-12-14T03:07:11;6.57;;;3.78;;
80320;SDS011;69633;47.066;15.450;2023-12-14T03:09:39;9.98;;;3.55;;
80320;SDS011;69633;47.066;15.450;2023-12-14T03:12:09;6.25;;;3.45;;
80320;SDS011;69633;47.066;15.450;2023-12-14T03:14:35;8.32;;;3.67;;
80320;SDS011;69633;47.066;15.450;2023-12-14T03:17:01;7.05;;;3.58;;
80320;SDS011;69633;47.066;15.450;2023-12-14T03:19:27;7.55;;;3.88;;
80320;SDS011;69633;47.066;15.450;2023-12-14T03:21:53;8.45;;;3.42;;
80320;SDS011;69633;47.066;15.450;2023-12-14T03:24:18;5.93;;;3.38;;
80320;SDS011;69633;47.066;15.450;2023-12-14T03:26:44;7.55;;;3.78;;
80320;SDS011;69633;47.066;15.450;2023-12-14T03:29:09;8.20;;;3.72;;
80320;SDS011;69633;47.066;15.450;2023-12-14T03:31:35;9.30;;;3.67;;
80320;SDS011;69633;47.066;15.450;2023-12-14T03:34:01;7.40;;;3.25;;
80320;SDS011;69633;47.066;15.450;2023-12-14T03:36:26;11.80;;;6.90;;
80320;SDS011;69633;47.066;15.450;2023-12-14T03:38:52;12.68;;;5.28;;
80320;SDS011;69633;47.066;15.450;2023-12-14T03:41:18;11.95;;;5.55;;
80320;SDS011;69633;47.066;15.450;2023-12-14T03:43:44;7.03;;;3.78;;
80320;SDS011;69633;47.066;15.450;2023-12-14T03:46:09;6.03;;;3.28;;
80320;SDS011;69633;47.066;15.450;2023-12-14T03:48:35;8.15;;;3.50;;
80320;SDS011;69633;47.066;15.450;2023-12-14T03:51:02;7.68;;;3.83;;
80320;SDS011;69633;47.066;15.450;2023-12-14T03:53:28;16.50;;;7.80;;
80320;SDS011;69633;47.066;15.450;2023-12-14T03:55:54;16.85;;;8.07;;
80320;SDS011;69633;47.066;15.450;2023-12-14T03:58:19;18.10;;;8.13;;
80320;SDS011;69633;47.066;15.450;2023-12-14T04:00:45;19.02;;;8.82;;
80320;SDS011;69633;47.066;15.450;2023-12-14T04:03:10;14.93;;;8.70;;
80320;SDS011;69633;47.066;15.450;2023-12-14T04:05:36;19.80;;;10.20;;
80320;SDS011;69633;47.066;15.450;2023-12-14T04:08:01;17.40;;;8.40;;
80320;SDS011;69633;47.066;15.450;2023-12-14T04:10:27;18.27;;;9.95;;
80320;SDS011;69633;47.066;15.450;2023-12-14T04:12:52;20.83;;;11.43;;
80320;SDS011;69633;47.066;15.450;2023-12-14T04:15:18;21.55;;;10.48;;
80320;SDS011;69633;47.066;15.450;2023-12-14T04:17:43;16.48;;;10.57;;
80320;SDS011;69633;47.066;15.450;2023-12-14T04:20:09;20.80;;;11.63;;
80320;SDS011;69633;47.066;15.450;2023-12-14T04:22:34;19.05;;;10.43;;
80320;SDS011;69633;47.066;15.450;2023-12-14T04:25:00;21.55;;;11.00;;
80320;SDS011;69633;47.066;15.450;2023-12-14T04:27:25;32.72;;;14.00;;
80320;SDS011;69633;47.066;15.450;2023-12-14T04:29:54;21.40;;;11.60;;
80320;SDS011;69633;47.066;15.450;2023-12-14T04:32:19;29.00;;;13.35;;
80320;SDS011;69633;47.066;15.450;2023-12-14T04:34:44;30.70;;;13.68;;
80320;SDS011;69633;47.066;15.450;2023-12-14T04:37:10;25.05;;;12.55;;
80320;SDS011;69633;47.066;15.450;2023-12-14T04:39:35;20.67;;;11.80;;
80320;SDS011;69633;47.066;15.450;2023-12-14T04:42:01;26.95;;;12.68;;
80320;SDS011;69633;47.066;15.450;2023-12-14T04:44:26;23.48;;;12.25;;
80320;SDS011;69633;47.066;15.450;2023-12-14T04:46:52;20.52;;;10.68;;
80320;SDS011;69633;47.066;15.450;2023-12-14T04:49:18;23.05;;;11.82;;
80320;SDS011;69633;47.066;15.450;2023-12-14T04:51:44;19.35;;;10.77;;
80320;SDS011;69633;47.066;15.450;2023-12-14T04:54:10;20.95;;;11.18;;
80320;SDS011;69633;47.066;15.450;2023-12-14T04:56:35;19.98;;;10.82;;
80320;SDS011;69633;47.066;15.450;2023-12-14T04:59:00;17.83;;;10.20;;
80320;SDS011;69633;47.066;15.450;2023-12-14T05:01:26;19.77;;;11.35;;
80320;SDS011;69633;47.066;15.450;2023-12-14T05:03:54;24.17;;;11.70;;
80320;SDS011;69633;47.066;15.450;2023-12-14T05:06:20;18.52;;;10.10;;
80320;SDS011;69633;47.066;15.450;2023-12-14T05:08:46;19.23;;;10.23;;
80320;SDS011;69633;47.066;15.450;2023-12-14T05:11:14;19.55;;;11.43;;
80320;SDS011;69633;47.066;15.450;2023-12-14T05:13:40;20.95;;;10.57;;
80320;SDS011;69633;47.066;15.450;2023-12-14T05:16:06;22.88;;;11.13;;
80320;SDS011;69633;47.066;15.450;2023-12-14T05:18:32;18.05;;;11.57;;
80320;SDS011;69633;47.066;15.450;2023-12-14T05:20:57;18.50;;;9.43;;
80320;SDS011;69633;47.066;15.450;2023-12-14T05:23:24;20.65;;;9.85;;
80320;SDS011;69633;47.066;15.450;2023-12-14T05:25:49;19.63;;;11.23;;
80320;SDS011;69633;47.066;15.450;2023-12-14T05:28:15;18.70;;;9.65;;
80320;SDS011;69633;47.066;15.450;2023-12-14T05:30:40;18.05;;;10.07;;
80320;SDS011;69633;47.066;15.450;2023-12-14T05:33:06;20.08;;;10.60;;
80320;SDS011;69633;47.066;15.450;2023-12-14T05:35:32;19.30;;;10.02;;
80320;SDS011;69633;47.066;15.450;2023-12-14T05:37:57;19.52;;;9.60;;
80320;SDS011;69633;47.066;15.450;2023-12-14T05:40:23;18.55;;;9.98;;
80320;SDS011;69633;47.066;15.450;2023-12-14T05:42:48;17.88;;;9.75;;
80320;SDS011;69633;47.066;15.450;2023-12-14T05:45:14;20.08;;;10.07;;
80320;SDS011;69633;47.066;15.450;2023-12-14T05:47:40;19.50;;;9.75;;
80320;SDS011;69633;47.066;15.450;2023-12-14T05:50:06;18.20;;;9.55;;
80320;SDS011;69633;47.066;15.450;2023-12-14T05:52:34;19.58;;;9.60;;
80320;SDS011;69633;47.066;15.450;2023-12-14T05:55:00;14.57;;;8.18;;
80320;SDS011;69633;47.066;15.450;2023-12-14T05:57:25;17.73;;;8.20;;
80320;SDS011;69633;47.066;15.450;2023-12-14T05:59:51;16.60;;;8.40;;
80320;SDS011;69633;47.066;15.450;2023-12-14T06:02:16;14.95;;;8.32;;
80320;SDS011;69633;47.066;15.450;2023-12-14T06:04:42;16.98;;;8.55;;
80320;SDS011;69633;47.066;15.450;2023-12-14T06:07:07;19.52;;;8.98;;
80320;SDS011;69633;47.066;15.450;2023-12-14T06:09:33;15.95;;;8.27;;
80320;SDS011;69633;47.066;15.450;2023-12-14T06:12:00;15.38;;;7.80;;
80320;SDS011;69633;47.066;15.450;2023-12-14T06:14:27;15.48;;;8.02;;
80320;SDS011;69633;47.066;15.450;2023-12-14T06:16:52;15.60;;;8.20;;
80320;SDS011;69633;47.066;15.450;2023-12-14T06:19:18;15.55;;;8.23;;
80320;SDS011;69633;47.066;15.450;2023-12-14T06:21:43;14.93;;;8.40;;
80320;SDS011;69633;47.066;15.450;2023-12-14T06:24:09;17.08;;;9.10;;
80320;SDS011;69633;47.066;15.450;2023-12-14T06:26:34;16.13;;;7.78;;
80320;SDS011;69633;47.066;15.450;2023-12-14T06:29:00;13.98;;;8.18;;
80320;SDS011;69633;47.066;15.450;2023-12-14T06:31:26;17.00;;;8.05;;
80320;SDS011;69633;47.066;15.450;2023-12-14T06:33:51;15.57;;;7.80;;
80320;SDS011;69633;47.066;15.450;2023-12-14T06:36:16;16.25;;;8.48;;
80320;SDS011;69633;47.066;15.450;2023-12-14T06:38:43;15.43;;;8.60;;
80320;SDS011;69633;47.066;15.450;2023-12-14T06:41:08;17.88;;;9.15;;
80320;SDS011;69633;47.066;15.450;2023-12-14T06:43:42;16.90;;;8.50;;
80320;SDS011;69633;47.066;15.450;2023-12-14T06:46:08;13.90;;;8.20;;
80320;SDS011;69633;47.066;15.450;2023-12-14T06:48:33;14.10;;;7.97;;
80320;SDS011;69633;47.066;15.450;2023-12-14T06:50:59;13.73;;;8.32;;
80320;SDS011;69633;47.066;15.450;2023-12-14T06:53:24;17.20;;;8.30;;
80320;SDS011;69633;47.066;15.450;2023-12-14T06:55:50;18.60;;;8.32;;
80320;SDS011;69633;47.066;15.450;2023-12-14T06:58:15;16.55;;;8.60;;
80320;SDS011;69633;47.066;15.450;2023-12-14T07:00:42;14.98;;;8.10;;
80320;SDS011;69633;47.066;15.450;2023-12-14T07:03:07;13.20;;;8.32;;
80320;SDS011;69633;47.066;15.450;2023-12-14T07:05:33;18.92;;;8.63;;
80320;SDS011;69633;47.066;15.450;2023-12-14T07:07:58;17.00;;;8.57;;
80320;SDS011;69633;47.066;15.450;2023-12-14T07:10:24;14.05;;;7.70;;
80320;SDS011;69633;47.066;15.450;2023-12-14T07:12:50;16.30;;;8.40;;
80320;SDS011;69633;47.066;15.450;2023-12-14T07:15:15;19.02;;;9.05;;
80320;SDS011;69633;47.066;15.450;2023-12-14T07:17:41;15.93;;;8.93;;
80320;SDS011;69633;47.066;15.450;2023-12-14T07:20:06;17.95;;;9.18;;
80320;SDS011;69633;47.066;15.450;2023-12-14T07:22:32;16.13;;;8.13;;
80320;SDS011;69633;47.066;15.450;2023-12-14T07:24:58;18.52;;;9.35;;
80320;SDS011;69633;47.066;15.450;2023-12-14T07:27:23;15.65;;;8.48;;
80320;SDS011;69633;47.066;15.450;2023-12-14T07:29:49;19.00;;;9.43;;
80320;SDS011;69633;47.066;15.450;2023-12-14T07:32:14;19.85;;;10.50;;
80320;SDS011;69633;47.066;15.450;2023-12-14T07:34:40;21.85;;;10.63;;
80320;SDS011;69633;47.066;15.450;2023-12-14T07:37:05;19.60;;;10.27;;
80320;SDS011;69633;47.066;15.450;2023-12-14T07:39:31;17.55;;;9.38;;
80320;SDS011;69633;47.066;15.450;2023-12-14T07:41:57;18.40;;;9.95;;
80320;SDS011;69633;47.066;15.450;2023-12-14T07:44:22;26.27;;;11.07;;
80320;SDS011;69633;47.066;15.450;2023-12-14T07:46:50;26.42;;;12.38;;
80320;SDS011;69633;47.066;15.450;2023-12-14T07:49:16;22.55;;;11.77;;
80320;SDS011;69633;47.066;15.450;2023-12-14T07:51:45;24.65;;;12.27;;
80320;SDS011;69633;47.066;15.450;2023-12-14T07:54:11;23.38;;;11.55;;
80320;SDS011;69633;47.066;15.450;2023-12-14T07:56:36;21.02;;;10.88;;
80320;SDS011;69633;47.066;15.450;2023-12-14T07:59:02;18.48;;;10.02;;
80320;SDS011;69633;47.066;15.450;2023-12-14T08:01:31;19.90;;;10.82;;
80320;SDS011;69633;47.066;15.450;2023-12-14T08:03:57;22.35;;;11.98;;
80320;SDS011;69633;47.066;15.450;2023-12-14T08:06:22;38.42;;;17.88;;
80320;SDS011;69633;47.066;15.450;2023-12-14T08:08:47;24.48;;;10.88;;
80320;SDS011;69633;47.066;15.450;2023-12-14T08:11:13;23.23;;;11.38;;
80320;SDS011;69633;47.066;15.450;2023-12-14T08:13:39;22.25;;;12.00;;
80320;SDS011;69633;47.066;15.450;2023-12-14T08:16:05;16.65;;;10.57;;
80320;SDS011;69633;47.066;15.450;2023-12-14T08:18:32;21.27;;;12.23;;
80320;SDS011;69633;47.066;15.450;2023-12-14T08:20:57;17.33;;;9.85;;
80320;SDS011;69633;47.066;15.450;2023-12-14T08:23:23;18.70;;;10.70;;
80320;SDS011;69633;47.066;15.450;2023-12-14T08:25:49;15.88;;;10.02;;
80320;SDS011;69633;47.066;15.450;2023-12-14T08:28:14;17.88;;;10.15;;
80320;SDS011;69633;47.066;15.450;2023-12-14T08:30:40;19.27;;;11.07;;
80320;SDS011;69633;47.066;15.450;2023-12-14T08:33:05;21.15;;;10.95;;
80320;SDS011;69633;47.066;15.450;2023-12-14T08:35:30;20.67;;;11.65;;
80320;SDS011;69633;47.066;15.450;2023-12-14T08:37:56;18.27;;;11.05;;
80320;SDS011;69633;47.066;15.450;2023-12-14T08:40:22;20.88;;;12.02;;
80320;SDS011;69633;47.066;15.450;2023-12-14T08:42:47;21.42;;;11.45;;
80320;SDS011;69633;47.066;15.450;2023-12-14T08:45:13;23.83;;;12.35;;
80320;SDS011;69633;47.066;15.450;2023-12-14T08:47:39;19.80;;;11.00;;
80320;SDS011;69633;47.066;15.450;2023-12-14T08:50:04;22.10;;;10.88;;
80320;SDS011;69633;47.066;15.450;2023-12-14T08:52:30;18.75;;;11.00;;
80320;SDS011;69633;47.066;15.450;2023-12-14T08:54:56;19.67;;;10.90;;
80320;SDS011;69633;47.066;15.450;2023-12-14T08:57:21;15.52;;;10.48;;
80320;SDS011;69633;47.066;15.450;2023-12-14T08:59:47;15.35;;;10.15;;
80320;SDS011;69633;47.066;15.450;2023-12-14T09:02:12;15.63;;;10.23;;
80320;SDS011;69633;47.066;15.450;2023-12-14T09:04:37;16.33;;;9.50;;
80320;SDS011;69633;47.066;15.450;2023-12-14T09:07:04;22.25;;;11.75;;
80320;SDS011;69633;47.066;15.450;2023-12-14T09:09:29;17.50;;;9.88;;
80320;SDS011;69633;47.066;15.450;2023-12-14T09:11:55;15.07;;;9.32;;
80320;SDS011;69633;47.066;15.450;2023-12-14T09:14:20;18.60;;;9.65;;
80320;SDS011;69633;47.066;15.450;2023-12-14T09:16:46;15.10;;;9.32;;
80320;SDS011;69633;47.066;15.450;2023-12-14T09:19:11;17.50;;;9.18;;
80320;SDS011;69633;47.066;15.450;2023-12-14T09:21:37;18.13;;;10.15;;
80320;SDS011;69633;47.066;15.450;2023-12-14T09:24:02;15.35;;;9.02;;
80320;SDS011;69633;47.066;15.450;2023-12-14T09:26:28;17.02;;;8.70;;
80320;SDS011;69633;47.066;15.450;2023-12-14T09:28:53;15.43;;;9.25;;
80320;SDS011;69633;47.066;15.450;2023-12-14T09:31:19;17.90;;;9.02;;
80320;SDS011;69633;47.066;15.450;2023-12-14T09:33:44;16.38;;;9.57;;
80320;SDS011;69633;47.066;15.450;2023-12-14T09:36:10;16.35;;;9.27;;
80320;SDS011;69633;47.066;15.450;2023-12-14T09:38:35;14.95;;;9.18;;
80320;SDS011;69633;47.066;15.450;2023-12-14T09:41:01;15.10;;;9.23;;
80320;SDS011;69633;47.066;15.450;2023-12-14T09:43:27;18.33;;;9.65;;
80320;SDS011;69633;47.066;15.450;2023-12-14T09:45:53;18.77;;;10.40;;
80320;SDS011;69633;47.066;15.450;2023-12-14T09:48:20;19.75;;;10.35;;
80320;SDS011;69633;47.066;15.450;2023-12-14T09:50:47;26.27;;;12.75;;
80320;SDS011;69633;47.066;15.450;2023-12-14T09:53:15;26.13;;;16.27;;
80320;SDS011;69633;47.066;15.450;2023-12-14T09:55:41;20.00;;;11.25;;
80320;SDS011;69633;47.066;15.450;2023-12-14T09:58:06;22.00;;;9.68;;
80320;SDS011;69633;47.066;15.450;2023-12-14T10:00:38;18.77;;;8.55;;
80320;SDS011;69633;47.066;15.450;2023-12-14T10:05:51;21.35;;;9.25;;
80320;SDS011;69633;47.066;15.450;2023-12-14T10:08:18;14.65;;;8.60;;
80320;SDS011;69633;47.066;15.450;2023-12-14T10:10:48;16.05;;;8.98;;
80320;SDS011;69633;47.066;15.450;2023-12-14T10:13:16;16.50;;;8.70;;
80320;SDS011;69633;47.066;15.450;2023-12-14T10:15:45;16.65;;;8.18;;
80320;SDS011;69633;47.066;15.450;2023-12-14T10:18:21;18.95;;;10.20;;
80320;SDS011;69633;47.066;15.450;2023-12-14T10:20:49;16.95;;;10.73;;
80320;SDS011;69633;47.066;15.450;2023-12-14T10:23:15;17.17;;;10.20;;
80320;SDS011;69633;47.066;15.450;2023-12-14T10:25:42;17.83;;;9.38;;
80320;SDS011;69633;47.066;15.450;2023-12-14T10:28:08;15.40;;;8.43;;
80320;SDS011;69633;47.066;15.450;2023-12-14T10:30:34;14.80;;;7.78;;
80320;SDS011;69633;47.066;15.450;2023-12-14T10:33:00;17.05;;;8.68;;
80320;SDS011;69633;47.066;15.450;2023-12-14T10:35:25;19.58;;;9.48;;
80320;SDS011;69633;47.066;15.450;2023-12-14T10:37:52;19.23;;;9.50;;
80320;SDS011;69633;47.066;15.450;2023-12-14T10:40:17;13.65;;;8.23;;
80320;SDS011;69633;47.066;15.450;2023-12-14T10:42:44;15.70;;;8.50;;
80320;SDS011;69633;47.066;15.450;2023-12-14T10:45:13;13.50;;;7.50;;
80320;SDS011;69633;47.066;15.450;2023-12-14T10:47:44;15.35;;;8.18;;
80320;SDS011;69633;47.066;15.450;2023-12-14T10:50:11;13.93;;;6.78;;
80320;SDS011;69633;47.066;15.450;2023-12-14T10:52:40;14.60;;;7.10;;
80320;SDS011;69633;47.066;15.450;2023-12-14T10:55:26;14.60;;;7.63;;
80320;SDS011;69633;47.066;15.450;2023-12-14T10:57:59;13.90;;;6.82;;
80320;SDS011;69633;47.066;15.450;2023-12-14T11:00:26;11.18;;;5.88;;
80320;SDS011;69633;47.066;15.450;2023-12-14T11:02:51;15.70;;;6.60;;
80320;SDS011;69633;47.066;15.450;2023-12-14T11:05:18;11.77;;;6.20;;
80320;SDS011;69633;47.066;15.450;2023-12-14T11:07:52;10.73;;;6.25;;
80320;SDS011;69633;47.066;15.450;2023-12-14T11:10:20;9.60;;;5.95;;
80320;SDS011;69633;47.066;15.450;2023-12-14T11:12:51;10.27;;;6.05;;
80320;SDS011;69633;47.066;15.450;2023-12-14T11:15:21;13.35;;;5.90;;
80320;SDS011;69633;47.066;15.450;2023-12-14T11:18:29;8.30;;;5.90;;
80320;SDS011;69633;47.066;15.450;2023-12-14T11:23:10;12.32;;;6.60;;
80320;SDS011;69633;47.066;15.450;2023-12-14T11:25:40;9.30;;;5.70;;
80320;SDS011;69633;47.066;15.450;2023-12-14T11:28:06;12.48;;;6.70;;
80320;SDS011;69633;47.066;15.450;2023-12-14T11:30:33;13.45;;;6.93;;
80320;SDS011;69633;47.066;15.450;2023-12-14T11:33:00;13.10;;;6.65;;
80320;SDS011;69633;47.066;15.450;2023-12-14T11:35:25;10.70;;;5.68;;
80320;SDS011;69633;47.066;15.450;2023-12-14T11:37:51;10.90;;;6.25;;
80320;SDS011;69633;47.066;15.450;2023-12-14T11:40:16;13.05;;;7.57;;
80320;SDS011;69633;47.066;15.450;2023-12-14T11:43:00;13.57;;;6.93;;
80320;SDS011;69633;47.066;15.450;2023-12-14T11:45:26;13.93;;;6.90;;
80320;SDS011;69633;47.066;15.450;2023-12-14T11:47:53;13.50;;;7.38;;
80320;SDS011;69633;47.066;15.450;2023-12-14T11:50:18;12.40;;;7.68;;
80320;SDS011;69633;47.066;15.450;2023-12-14T11:52:44;13.60;;;7.50;;
80320;SDS011;69633;47.066;15.450;2023-12-14T11:55:12;12.52;;;7.78;;
80320;SDS011;69633;47.066;15.450;2023-12-14T11:57:39;18.40;;;9.57;;
80320;SDS011;69633;47.066;15.450;2023-12-14T12:00:11;20.75;;;8.73;;
80320;SDS011;69633;47.066;15.450;2023-12-14T12:02:37;15.25;;;7.60;;
80320;SDS011;69633;47.066;15.450;2023-12-14T12:05:02;16.38;;;7.72;;
80320;SDS011;69633;47.066;15.450;2023-12-14T12:07:28;15.93;;;6.20;;
80320;SDS011;69633;47.066;15.450;2023-12-14T12:09:53;14.45;;;6.38;;
80320;SDS011;69633;47.066;15.450;2023-12-14T12:12:20;15.10;;;6.57;;
80320;SDS011;69633;47.066;15.450;2023-12-14T12:14:46;12.38;;;5.57;;
80320;SDS011;69633;47.066;15.450;2023-12-14T12:17:13;7.97;;;3.90;;
80320;SDS011;69633;47.066;15.450;2023-12-14T12:19:40;4.05;;;2.08;;
80320;SDS011;69633;47.066;15.450;2023-12-14T12:22:07;3.85;;;2.28;;
80320;SDS011;69633;47.066;15.450;2023-12-14T12:24:33;2.67;;;1.50;;
80320;SDS011;69633;47.066;15.450;2023-12-14T12:26:59;2.80;;;1.45;;
80320;SDS011;69633;47.066;15.450;2023-12-14T12:29:24;2.03;;;1.13;;
80320;SDS011;69633;47.066;15.450;2023-12-14T12:31:50;1.00;;;0.80;;
80320;SDS011;69633;47.066;15.450;2023-12-14T12:34:16;2.40;;;1.10;;
80320;SDS011;69633;47.066;15.450;2023-12-14T12:36:42;5.30;;;1.42;;
80320;SDS011;69633;47.066;15.450;2023-12-14T12:39:08;1.65;;;0.93;;
80320;SDS011;69633;47.066;15.450;2023-12-14T12:41:34;2.15;;;1.00;;
80320;SDS011;69633;47.066;15.450;2023-12-14T12:43:59;2.38;;;1.30;;
80320;SDS011;69633;47.066;15.450;2023-12-14T12:46:31;4.55;;;1.10;;
80320;SDS011;69633;47.066;15.450;2023-12-14T12:48:58;3.10;;;1.15;;
80320;SDS011;69633;47.066;15.450;2023-12-14T12:51:23;2.63;;;1.10;;
80320;SDS011;69633;47.066;15.450;2023-12-14T12:53:50;2.63;;;0.80;;
80320;SDS011;69633;47.066;15.450;2023-12-14T12:56:16;3.92;;;1.35;;
80320;SDS011;69633;47.066;15.450;2023-12-14T12:58:41;2.17;;;1.10;;
80320;SDS011;69633;47.066;15.450;2023-12-14T13:01:07;1.90;;;1.10;;
80320;SDS011;69633;47.066;15.450;2023-12-14T13:03:33;4.05;;;1.38;;
80320;SDS011;69633;47.066;15.450;2023-12-14T13:05:58;1.95;;;0.82;;
80320;SDS011;69633;47.066;15.450;2023-12-14T13:08:23;2.17;;;0.80;;
80320;SDS011;69633;47.066;15.450;2023-12-14T13:10:49;1.90;;;1.10;;
80320;SDS011;69633;47.066;15.450;2023-12-14T13:13:17;1.23;;;0.80;;
80320;SDS011;69633;47.066;15.450;2023-12-14T13:15:43;3.92;;;0.80;;
80320;SDS011;69633;47.066;15.450;2023-12-14T13:18:08;3.00;;;1.00;;
80320;SDS011;69633;47.066;15.450;2023-12-14T13:20:34;1.63;;;1.10;;
80320;SDS011;69633;47.066;15.450;2023-12-14T13:23:00;1.67;;;0.80;;
80320;SDS011;69633;47.066;15.450;2023-12-14T13:25:26;0.50;;;0.50;;
80320;SDS011;69633;47.066;15.450;2023-12-14T13:27:52;4.50;;;0.90;;
80320;SDS011;69633;47.066;15.450;2023-12-14T13:30:17;7.90;;;1.35;;
80320;SDS011;69633;47.066;15.450;2023-12-14T13:32:43;3.20;;;1.10;;
80320;SDS011;69633;47.066;15.450;2023-12-14T13:35:08;2.72;;;1.00;;
80320;SDS011;69633;47.066;15.450;2023-12-14T13:37:34;7.90;;;4.80;;
80320;SDS011;69633;47.066;15.450;2023-12-14T13:40:00;11.13;;;5.35;;
80320;SDS011;69633;47.066;15.450;2023-12-14T13:42:25;11.85;;;5.43;;
80320;SDS011;69633;47.066;15.450;2023-12-14T13:44:51;10.65;;;4.90;;
80320;SDS011;69633;47.066;15.450;2023-12-14T13:47:17;11.38;;;4.28;;
80320;SDS011;69633;47.066;15.450;2023-12-14T13:49:42;10.13;;;4.15;;
80320;SDS011;69633;47.066;15.450;2023-12-14T13:52:08;3.80;;;2.08;;
80320;SDS011;69633;47.066;15.450;2023-12-14T13:54:34;5.70;;;2.40;;
80320;SDS011;69633;47.066;15.450;2023-12-14T13:57:01;5.75;;;1.30;;
80320;SDS011;69633;47.066;15.450;2023-12-14T13:59:27;2.47;;;1.25;;
80320;SDS011;69633;47.066;15.450;2023-12-14T14:01:52;4.43;;;1.75;;
80320;SDS011;69633;47.066;15.450;2023-12-14T14:04:18;4.15;;;1.50;;
80320;SDS011;69633;47.066;15.450;2023-12-14T14:06:44;1.60;;;0.90;;
80320;SDS011;69633;47.066;15.450;2023-12-14T14:09:09;3.03;;;1.40;;
80320;SDS011;69633;47.066;15.450;2023-12-14T14:11:36;6.35;;;1.58;;
80320;SDS011;69633;47.066;15.450;2023-12-14T14:14:01;3.75;;;1.60;;
80320;SDS011;69633;47.066;15.450;2023-12-14T14:16:28;5.07;;;1.42;;
80320;SDS011;69633;47.066;15.450;2023-12-14T14:18:54;2.83;;;1.23;;